Time;durP1;ratioP1;P1;durP2;ratioP2;P2;SDS_P1;SDS_P2;PMS_P1;PMS_P2;Temp;Humidity;BMP_temperature;BMP_pressure;BME280_temperature;BME280_humidity;BME280_pressure;Samples;Min_cycle;Max_cycle;Signal;HPM_P1;HPM_P2
2021/12/22 00:01:46;;;;;;;25.37;16.30;;;-2.60;99.90;;;;;;4936820;29;20225;-68
2021/12/22 00:04:12;;;;;;;28.33;19.80;;;-2.60;99.90;;;;;;4936813;29;20445;-68
2021/12/22 00:06:37;;;;;;;25.00;17.10;;;-2.60;99.90;;;;;;4936524;29;20716;-68
2021/12/22 00:09:04;;;;;;;23.57;15.00;;;-2.60;99.90;;;;;;4936717;29;20268;-68
2021/12/22 00:11:30;;;;;;;24.90;17.03;;;-2.50;99.90;;;;;;4936443;29;20591;-69
2021/12/22 00:13:56;;;;;;;21.80;15.47;;;-2.50;99.90;;;;;;4936547;29;20528;-69
2021/12/22 00:16:22;;;;;;;31.67;15.30;;;-2.40;99.90;;;;;;4936448;29;20212;-69
2021/12/22 00:18:48;;;;;;;23.27;16.77;;;-2.40;99.90;;;;;;4936567;29;20469;-69
2021/12/22 00:21:14;;;;;;;21.47;14.20;;;-2.30;99.90;;;;;;4936417;29;20248;-69
2021/12/22 00:23:40;;;;;;;18.40;15.73;;;-2.30;99.90;;;;;;4936517;29;20166;-69
2021/12/22 00:26:06;;;;;;;23.30;16.63;;;-2.40;99.90;;;;;;4936538;29;20421;-69
2021/12/22 00:28:32;;;;;;;22.83;15.70;;;-2.40;99.90;;;;;;4936399;29;20197;-69
2021/12/22 00:30:59;;;;;;;21.37;15.93;;;-2.50;99.90;;;;;;4936335;29;20280;-69
2021/12/22 00:33:27;;;;;;;28.27;17.43;;;-2.60;99.90;;;;;;4936326;29;20430;-69
2021/12/22 00:35:52;;;;;;;19.70;16.13;;;-2.70;99.90;;;;;;4935922;29;20476;-68
2021/12/22 00:38:20;;;;;;;22.47;14.87;;;-2.80;99.90;;;;;;4936281;29;20493;-68
2021/12/22 00:40:46;;;;;;;25.83;17.70;;;-2.70;99.90;;;;;;4935868;29;20647;-69
2021/12/22 00:43:13;;;;;;;24.70;17.07;;;-2.60;99.90;;;;;;4936039;29;20571;-68
2021/12/22 00:45:39;;;;;;;21.27;16.13;;;-2.60;99.90;;;;;;4936005;29;20501;-69
2021/12/22 00:48:06;;;;;;;24.60;16.77;;;-2.60;99.90;;;;;;4936049;29;20421;-68
2021/12/22 00:50:33;;;;;;;19.40;15.83;;;-2.70;99.90;;;;;;4935878;29;20417;-69
2021/12/22 00:52:59;;;;;;;22.87;15.83;;;-2.80;99.90;;;;;;4935989;29;20560;-69
2021/12/22 00:55:24;;;;;;;21.30;14.80;;;-2.70;99.90;;;;;;4935470;29;20868;-68
2021/12/22 00:57:50;;;;;;;24.20;16.33;;;-2.70;99.90;;;;;;4935758;29;20417;-69
2021/12/22 01:00:18;;;;;;;23.07;17.30;;;-2.60;99.90;;;;;;4935799;29;20197;-69
2021/12/22 01:02:44;;;;;;;21.17;16.37;;;-2.60;99.90;;;;;;4935614;29;21019;-69
2021/12/22 01:05:15;;;;;;;20.43;15.60;;;-2.60;99.90;;;;;;4935464;29;20422;-69
2021/12/22 01:07:42;;;;;;;23.20;16.20;;;-2.60;99.90;;;;;;4935736;29;20422;-68
2021/12/22 01:10:08;;;;;;;24.97;16.87;;;-2.60;99.90;;;;;;4935426;29;20428;-68
2021/12/22 01:12:34;;;;;;;20.43;17.20;;;-2.60;99.90;;;;;;4935500;29;20438;-69
2021/12/22 01:15:00;;;;;;;22.27;15.70;;;-2.70;99.90;;;;;;4935331;29;20417;-68
2021/12/22 01:17:26;;;;;;;22.80;14.93;;;-2.70;99.90;;;;;;4935482;29;20418;-68
2021/12/22 01:20:03;;;;;;;21.70;17.63;;;-2.80;99.90;;;;;;4935390;29;20205;-69
2021/12/22 01:22:37;;;;;;;29.83;16.80;;;-2.90;99.90;;;;;;4935400;29;20185;-69
2021/12/22 01:25:06;;;;;;;19.03;16.20;;;-2.90;99.90;;;;;;4935125;29;20414;-69
2021/12/22 01:27:37;;;;;;;22.43;16.90;;;-2.80;99.90;;;;;;4935322;29;20512;-69
2021/12/22 01:30:14;;;;;;;21.40;15.77;;;-2.80;99.90;;;;;;4935306;29;20923;-69
2021/12/22 01:32:41;;;;;;;19.60;14.23;;;-2.80;99.90;;;;;;4935275;29;20852;-69
2021/12/22 01:35:10;;;;;;;18.53;13.90;;;-2.80;99.90;;;;;;4934729;29;20958;-69
2021/12/22 01:37:36;;;;;;;27.73;15.40;;;-2.90;99.90;;;;;;4935121;29;20421;-69
2021/12/22 01:40:04;;;;;;;21.30;15.13;;;-2.80;99.90;;;;;;4935139;29;20539;-69
2021/12/22 01:42:30;;;;;;;24.70;15.90;;;-2.80;99.90;;;;;;4935022;29;20444;-69
2021/12/22 01:50:48;;;;;;;20.47;15.00;;;-2.70;99.90;;;;;;4935044;29;20472;-68
2021/12/22 01:53:20;;;;;;;22.57;15.50;;;-2.70;99.90;;;;;;4936440;29;20458;-68
2021/12/22 01:55:59;;;;;;;22.30;16.10;;;-2.80;99.90;;;;;;4933293;29;20437;-68
2021/12/22 01:58:45;;;;;;;17.83;14.47;;;-2.80;99.90;;;;;;4935002;29;20831;-69
2021/12/22 02:01:13;;;;;;;21.33;16.13;;;-2.80;99.90;;;;;;4934811;29;20492;-69
2021/12/22 02:03:39;;;;;;;20.30;15.43;;;-2.80;99.90;;;;;;4934929;29;20425;-69
2021/12/22 02:06:06;;;;;;;19.27;15.00;;;-2.90;99.90;;;;;;4934507;29;20524;-69
2021/12/22 02:08:32;;;;;;;26.77;18.10;;;-2.90;99.90;;;;;;4934784;29;20448;-69
2021/12/22 02:10:58;;;;;;;22.07;15.83;;;-2.90;99.90;;;;;;4934581;29;20485;-69
2021/12/22 02:13:30;;;;;;;26.50;17.20;;;-2.80;99.90;;;;;;4934820;29;20432;-68
2021/12/22 02:15:55;;;;;;;23.97;16.93;;;-2.80;99.90;;;;;;4934549;29;20543;-68
2021/12/22 02:18:22;;;;;;;30.77;19.30;;;-2.80;99.90;;;;;;4934724;29;20465;-68
2021/12/22 02:20:49;;;;;;;28.27;17.60;;;-2.70;99.90;;;;;;4934613;29;20189;-68
2021/12/22 02:23:16;;;;;;;23.37;16.90;;;-2.70;99.90;;;;;;4934655;29;20432;-67
2021/12/22 02:25:50;;;;;;;23.40;16.27;;;-2.70;99.90;;;;;;4934516;29;20417;-67
2021/12/22 02:28:21;;;;;;;23.00;16.80;;;-2.70;99.90;;;;;;4934670;29;20425;-67
2021/12/22 02:30:47;;;;;;;20.10;15.47;;;-2.70;99.90;;;;;;4934611;29;20540;-67
2021/12/22 02:33:24;;;;;;;23.03;16.10;;;-2.70;99.90;;;;;;4934558;29;20421;-67
2021/12/22 02:38:37;;;;;;;22.37;15.87;;;-2.80;99.90;;;;;;4934632;29;20464;-67
2021/12/22 02:41:04;;;;;;;24.63;15.87;;;-2.80;99.90;;;;;;4934599;29;20442;-67
2021/12/22 02:43:33;;;;;;;20.77;15.00;;;-2.90;99.90;;;;;;4934875;29;20944;-66
2021/12/22 02:45:59;;;;;;;24.27;16.63;;;-3.00;99.90;;;;;;4934725;29;20430;-66
2021/12/22 02:48:31;;;;;;;24.77;16.20;;;-3.00;99.90;;;;;;4934494;29;20456;-66
2021/12/22 02:51:01;;;;;;;21.93;15.70;;;-3.00;99.90;;;;;;4934378;29;20491;-67
2021/12/22 02:53:38;;;;;;;21.97;15.47;;;-3.10;99.90;;;;;;4934429;29;20428;-67
2021/12/22 02:58:46;;;;;;;24.30;15.90;;;-3.10;99.90;;;;;;4934672;29;20630;-67
2021/12/22 03:08:58;;;;;;;26.30;18.30;;;-3.30;99.90;;;;;;4938152;29;20409;-66
2021/12/22 03:11:23;;;;;;;23.80;17.70;;;-3.20;99.90;;;;;;4937464;29;20467;-67
2021/12/22 03:13:49;;;;;;;26.23;16.80;;;-3.30;99.90;;;;;;4937739;29;20173;-67
2021/12/22 03:16:18;;;;;;;30.67;17.67;;;-3.30;99.90;;;;;;4937477;29;20182;-67
2021/12/22 03:18:44;;;;;;;22.97;16.50;;;-3.30;99.90;;;;;;4937632;29;20202;-66
2021/12/22 03:21:19;;;;;;;26.40;16.30;;;-3.20;99.90;;;;;;4937402;29;20444;-67
2021/12/22 03:23:46;;;;;;;28.57;16.97;;;-3.20;99.90;;;;;;4937522;29;20503;-66
2021/12/22 03:26:14;;;;;;;21.90;15.07;;;-3.20;99.90;;;;;;4937159;29;20421;-67
2021/12/22 03:28:40;;;;;;;22.70;16.47;;;-3.10;99.90;;;;;;4937477;29;20426;-69
2021/12/22 03:31:06;;;;;;;20.57;14.80;;;-3.20;99.90;;;;;;4937375;29;20468;-68
2021/12/22 03:33:31;;;;;;;22.43;17.67;;;-3.10;99.90;;;;;;4937337;29;20429;-68
2021/12/22 03:35:57;;;;;;;22.57;16.93;;;-3.10;99.90;;;;;;4936866;29;20428;-67
2021/12/22 03:38:22;;;;;;;21.33;14.63;;;-3.10;99.90;;;;;;4937162;29;20213;-67
2021/12/22 03:40:48;;;;;;;19.87;16.40;;;-3.10;99.90;;;;;;4937362;29;20265;-66
2021/12/22 03:43:13;;;;;;;25.60;16.53;;;-3.10;99.90;;;;;;4937253;29;20675;-67
2021/12/22 03:45:39;;;;;;;23.03;16.07;;;-3.20;99.90;;;;;;4937008;29;20173;-67
2021/12/22 03:48:04;;;;;;;24.27;17.83;;;-3.20;99.90;;;;;;4937135;29;20173;-68
2021/12/22 03:50:30;;;;;;;22.00;18.17;;;-3.20;99.90;;;;;;4936847;29;20174;-66
2021/12/22 03:52:55;;;;;;;23.50;16.20;;;-3.20;99.90;;;;;;4936950;29;20261;-67
2021/12/22 03:55:21;;;;;;;17.83;13.60;;;-3.20;99.90;;;;;;4936648;29;20261;-67
2021/12/22 03:57:46;;;;;;;24.63;15.83;;;-3.20;99.90;;;;;;4936931;29;20613;-67
2021/12/22 04:00:14;;;;;;;19.90;14.90;;;-3.20;99.90;;;;;;4936824;29;20704;-67
2021/12/22 04:02:39;;;;;;;19.53;14.53;;;-3.20;99.90;;;;;;4937374;29;20185;-69
2021/12/22 04:05:06;;;;;;;20.77;16.07;;;-3.30;99.90;;;;;;4936555;29;20453;-69
2021/12/22 04:07:32;;;;;;;26.77;18.53;;;-3.40;99.90;;;;;;4936697;29;20178;-69
2021/12/22 04:09:58;;;;;;;21.80;15.93;;;-3.50;99.90;;;;;;4936631;29;20440;-69
2021/12/22 04:12:24;;;;;;;20.40;15.53;;;-3.40;99.90;;;;;;4936987;29;21007;-68
2021/12/22 04:14:50;;;;;;;21.37;15.43;;;-3.40;99.90;;;;;;4936661;29;20457;-69
2021/12/22 04:17:15;;;;;;;26.00;14.53;;;-3.30;99.90;;;;;;4936426;29;20169;-69
2021/12/22 04:19:41;;;;;;;23.33;15.83;;;-3.30;99.90;;;;;;4936453;29;20464;-69
2021/12/22 04:22:07;;;;;;;19.40;15.60;;;-3.30;99.90;;;;;;4936501;29;20686;-69
2021/12/22 04:24:33;;;;;;;28.63;17.57;;;-3.50;99.90;;;;;;4936593;29;20170;-70
2021/12/22 04:26:58;;;;;;;20.73;16.40;;;-3.60;99.90;;;;;;4936110;29;20846;-69
2021/12/22 04:29:24;;;;;;;33.23;17.47;;;-3.70;99.90;;;;;;4936384;29;20594;-70
2021/12/22 04:31:50;;;;;;;18.80;13.83;;;-3.60;99.90;;;;;;4936397;29;20190;-69
2021/12/22 04:34:15;;;;;;;21.70;15.93;;;-3.60;99.90;;;;;;4936271;29;20204;-69
2021/12/22 04:36:41;;;;;;;19.43;16.37;;;-3.60;99.90;;;;;;4935988;29;20177;-70
2021/12/22 04:39:08;;;;;;;20.50;15.23;;;-3.60;99.90;;;;;;4936168;29;20206;-69
2021/12/22 04:41:34;;;;;;;26.07;15.77;;;-3.60;99.90;;;;;;4936043;29;20524;-69
2021/12/22 04:44:00;;;;;;;23.87;15.60;;;-3.50;99.90;;;;;;4936213;29;20846;-69
2021/12/22 04:46:25;;;;;;;22.57;16.53;;;-3.50;99.90;;;;;;4934508;29;20209;-69
2021/12/22 04:48:51;;;;;;;21.30;17.40;;;-3.40;99.90;;;;;;4935943;29;20205;-70
2021/12/22 04:51:29;;;;;;;27.53;18.27;;;-3.40;99.90;;;;;;4935863;29;20198;-69
2021/12/22 04:54:12;;;;;;;23.43;16.40;;;-3.40;99.90;;;;;;4935995;29;20445;-69
2021/12/22 04:56:39;;;;;;;26.93;17.20;;;-3.50;99.90;;;;;;4935586;29;20425;-69
2021/12/22 04:59:05;;;;;;;26.53;16.00;;;-3.50;99.90;;;;;;4935679;29;20552;-69
2021/12/22 05:01:30;;;;;;;28.73;18.63;;;-3.50;99.90;;;;;;4935750;29;20870;-69
2021/12/22 05:03:56;;;;;;;24.60;17.13;;;-3.60;99.90;;;;;;4935830;29;20170;-69
2021/12/22 05:06:23;;;;;;;21.13;15.70;;;-3.50;99.90;;;;;;4935391;29;20166;-69
2021/12/22 05:08:48;;;;;;;29.07;16.40;;;-3.60;99.90;;;;;;4935689;29;20201;-70
2021/12/22 05:11:14;;;;;;;22.40;16.80;;;-3.70;99.90;;;;;;4935651;29;20910;-69
2021/12/22 05:13:39;;;;;;;23.43;17.43;;;-3.70;99.90;;;;;;4935673;29;20178;-70
2021/12/22 05:16:06;;;;;;;25.40;17.57;;;-3.70;99.90;;;;;;4935263;29;20174;-69
2021/12/22 05:19:12;;;;;;;20.23;15.33;;;-3.70;99.90;;;;;;4935602;29;20304;-69
2021/12/22 05:21:24;;;;;;;22.83;16.93;;;-3.80;99.90;;;;;;4936035;29;20496;-69
2021/12/22 05:23:51;;;;;;;24.07;15.93;;;-3.70;99.90;;;;;;4935410;29;20426;-70
2021/12/22 05:26:18;;;;;;;23.23;16.13;;;-3.70;99.90;;;;;;4935094;29;20432;-69
2021/12/22 05:28:43;;;;;;;21.17;16.77;;;-3.70;99.90;;;;;;4934678;29;20425;-70
2021/12/22 05:31:09;;;;;;;24.53;15.07;;;-3.70;99.90;;;;;;4935278;29;20449;-69
2021/12/22 05:33:34;;;;;;;23.17;15.73;;;-3.70;99.90;;;;;;4935351;29;20170;-69
2021/12/22 05:36:00;;;;;;;20.80;16.37;;;-3.80;99.90;;;;;;4935039;29;20234;-69
2021/12/22 05:38:25;;;;;;;24.17;17.27;;;-3.80;99.90;;;;;;4935432;29;20198;-69
2021/12/22 05:40:51;;;;;;;23.47;15.00;;;-3.80;99.90;;;;;;4935136;29;20193;-69
2021/12/22 05:43:17;;;;;;;23.30;15.27;;;-3.80;99.90;;;;;;4935321;29;20166;-69
2021/12/22 05:45:42;;;;;;;24.47;15.80;;;-3.80;99.90;;;;;;4933686;29;20229;-69
2021/12/22 05:48:08;;;;;;;29.83;17.67;;;-3.90;99.90;;;;;;4935067;29;20177;-69
2021/12/22 05:50:33;;;;;;;24.40;15.90;;;-3.90;99.90;;;;;;4934950;29;20173;-69
2021/12/22 05:52:59;;;;;;;21.57;16.63;;;-3.90;99.90;;;;;;4935060;29;20196;-69
2021/12/22 05:55:25;;;;;;;23.00;16.37;;;-3.90;99.90;;;;;;4934590;29;20550;-69
2021/12/22 05:57:50;;;;;;;26.77;18.20;;;-3.90;99.90;;;;;;4934954;29;20266;-69
2021/12/22 06:00:16;;;;;;;24.87;17.07;;;-4.00;99.90;;;;;;4934920;29;20225;-69
2021/12/22 06:02:42;;;;;;;20.60;16.77;;;-4.00;99.90;;;;;;4935055;29;20193;-70
2021/12/22 06:05:09;;;;;;;24.97;17.70;;;-4.00;99.90;;;;;;4934539;29;20176;-69
2021/12/22 06:07:34;;;;;;;21.13;16.50;;;-4.00;99.90;;;;;;4934823;29;20425;-69
2021/12/22 06:10:00;;;;;;;20.73;15.60;;;-4.00;99.90;;;;;;4934529;29;20432;-69
2021/12/22 06:12:26;;;;;;;23.60;16.33;;;-4.00;99.90;;;;;;4934679;29;20256;-69
2021/12/22 06:14:51;;;;;;;22.27;15.57;;;-4.00;99.90;;;;;;4934767;29;20269;-69
2021/12/22 06:17:17;;;;;;;26.70;16.30;;;-4.00;99.90;;;;;;4934507;29;20184;-69
2021/12/22 06:19:42;;;;;;;26.33;15.83;;;-4.00;99.90;;;;;;4934740;29;20593;-69
2021/12/22 06:22:08;;;;;;;23.63;14.93;;;-4.10;99.90;;;;;;4934663;29;20204;-69
2021/12/22 06:24:33;;;;;;;22.20;16.47;;;-4.10;99.90;;;;;;4934693;29;20182;-69
2021/12/22 06:26:59;;;;;;;24.33;16.20;;;-4.20;99.90;;;;;;4934427;29;20174;-69
2021/12/22 06:29:25;;;;;;;26.30;16.73;;;-4.10;99.90;;;;;;4934711;29;20181;-69
2021/12/22 06:31:51;;;;;;;26.80;15.93;;;-4.10;99.90;;;;;;4934558;29;20197;-69
2021/12/22 06:34:16;;;;;;;26.67;18.50;;;-4.10;99.90;;;;;;4934660;29;20958;-69
2021/12/22 06:36:42;;;;;;;29.77;17.60;;;-4.20;99.90;;;;;;4934348;29;20181;-69
2021/12/22 06:39:07;;;;;;;24.67;17.30;;;-4.10;99.90;;;;;;4934919;29;20225;-69
2021/12/22 06:41:34;;;;;;;26.27;16.20;;;-4.20;99.90;;;;;;4938305;29;20656;-69
2021/12/22 06:43:59;;;;;;;26.10;16.03;;;-4.20;99.90;;;;;;4937097;29;20212;-69
2021/12/22 06:46:25;;;;;;;24.77;16.43;;;-4.20;99.90;;;;;;4938009;29;20938;-69
2021/12/22 06:48:50;;;;;;;26.20;17.60;;;-4.20;99.90;;;;;;4938242;29;20257;-69
2021/12/22 06:51:16;;;;;;;20.77;15.87;;;-4.10;99.90;;;;;;4938152;29;20598;-69
2021/12/22 06:53:41;;;;;;;24.73;16.17;;;-4.10;99.90;;;;;;4938088;29;20268;-69
2021/12/22 06:56:07;;;;;;;25.47;16.00;;;-4.00;99.90;;;;;;4937856;29;20824;-69
2021/12/22 06:58:33;;;;;;;27.47;17.37;;;-4.00;99.90;;;;;;4938016;29;20309;-69
2021/12/22 07:00:59;;;;;;;32.43;19.43;;;-4.10;99.90;;;;;;4937931;29;20276;-69
2021/12/22 07:03:25;;;;;;;30.50;18.10;;;-4.10;99.90;;;;;;4937938;29;20855;-69
2021/12/22 07:05:50;;;;;;;27.63;17.27;;;-4.10;99.90;;;;;;4937625;29;20496;-70
2021/12/22 07:08:16;;;;;;;24.77;15.50;;;-4.10;99.90;;;;;;4937902;29;20181;-69
2021/12/22 07:10:42;;;;;;;26.10;15.90;;;-4.10;99.90;;;;;;4937639;29;20336;-70
2021/12/22 07:13:09;;;;;;;29.10;17.67;;;-4.10;99.90;;;;;;4937762;29;20465;-69
2021/12/22 07:15:34;;;;;;;29.37;18.77;;;-4.20;99.90;;;;;;4937527;29;20174;-69
2021/12/22 07:18:02;;;;;;;27.03;17.47;;;-4.10;99.90;;;;;;4937544;29;20784;-69
2021/12/22 07:20:27;;;;;;;24.73;16.90;;;-4.10;99.90;;;;;;4937529;29;20177;-69
2021/12/22 07:22:53;;;;;;;24.63;15.57;;;-4.10;99.90;;;;;;4937537;29;20833;-69
2021/12/22 07:25:23;;;;;;;24.60;16.47;;;-4.00;99.90;;;;;;4937338;29;20184;-69
2021/12/22 07:27:48;;;;;;;25.40;16.63;;;-4.00;99.90;;;;;;4937757;29;20652;-70
2021/12/22 07:30:14;;;;;;;29.73;17.10;;;-4.00;99.90;;;;;;4937649;29;20445;-69
2021/12/22 07:32:40;;;;;;;25.30;17.17;;;-4.00;99.90;;;;;;4937387;29;20193;-69
2021/12/22 07:35:41;;;;;;;21.83;15.83;;;-3.90;99.90;;;;;;4937079;29;20181;-69
2021/12/22 07:38:13;;;;;;;27.50;17.60;;;-3.80;99.90;;;;;;4939989;29;20193;-69
2021/12/22 07:40:39;;;;;;;22.33;15.67;;;-3.90;99.90;;;;;;4937308;29;20450;-69
2021/12/22 07:43:04;;;;;;;23.80;16.73;;;-3.80;99.90;;;;;;4919117;29;21005;-70
2021/12/22 07:45:30;;;;;;;28.13;18.60;;;-3.90;99.90;;;;;;4928187;29;20187;-69
2021/12/22 07:47:55;;;;;;;29.80;20.40;;;-3.90;99.90;;;;;;4956271;29;20173;-69
2021/12/22 07:50:21;;;;;;;28.43;17.97;;;-3.90;99.90;;;;;;4956062;28;20169;-69
2021/12/22 07:52:46;;;;;;;27.50;19.43;;;-3.60;99.90;;;;;;4949887;28;20196;-70
2021/12/22 07:55:12;;;;;;;26.90;17.10;;;-2.90;99.90;;;;;;4955875;29;20191;-70
2021/12/22 07:57:37;;;;;;;27.90;20.00;;;-2.30;99.90;;;;;;4956136;29;20180;-68
2021/12/22 08:00:06;;;;;;;29.17;19.50;;;-1.40;99.90;;;;;;4955871;29;20216;-67
2021/12/22 08:02:31;;;;;;;25.60;19.00;;;-0.70;99.90;;;;;;4952082;28;20216;-68
2021/12/22 08:04:57;;;;;;;25.97;20.47;;;0.20;99.90;;;;;;4955818;29;20861;-68
2021/12/22 08:07:22;;;;;;;25.17;19.60;;;1.10;99.90;;;;;;4955875;29;20204;-70
2021/12/22 08:09:48;;;;;;;25.67;20.47;;;1.90;99.90;;;;;;4955852;29;20177;-68
2021/12/22 08:12:14;;;;;;;24.20;19.83;;;2.80;99.90;;;;;;4952391;28;20866;-68
2021/12/22 08:14:40;;;;;;;27.33;21.63;;;3.50;99.90;;;;;;4955709;28;20181;-68
2021/12/22 08:17:07;;;;;;;26.70;19.90;;;4.10;99.90;;;;;;4955322;28;20184;-68
2021/12/22 08:19:33;;;;;;;23.20;19.57;;;4.70;99.90;;;;;;4955559;28;20339;-68
2021/12/22 08:21:59;;;;;;;22.67;20.33;;;5.30;99.90;;;;;;4952144;28;20481;-68
2021/12/22 08:24:24;;;;;;;26.10;22.23;;;6.00;98.50;;;;;;4955551;28;20900;-68
2021/12/22 08:26:51;;;;;;;25.90;21.83;;;6.60;98.00;;;;;;4955336;28;20184;-68
2021/12/22 08:29:17;;;;;;;23.80;21.30;;;7.30;95.50;;;;;;4955425;28;20181;-68
2021/12/22 08:31:43;;;;;;;25.17;22.10;;;8.00;93.70;;;;;;4952839;28;20455;-69
2021/12/22 08:34:10;;;;;;;23.33;19.87;;;8.60;93.20;;;;;;4954404;28;20918;-68
2021/12/22 08:39:22;;;;;;;22.70;20.33;;;10.00;86.50;;;;;;4955295;29;20609;-68
2021/12/22 08:41:49;;;;;;;22.23;20.10;;;10.70;81.20;;;;;;4952099;28;21010;-68
2021/12/22 08:44:18;;;;;;;24.60;22.00;;;11.10;77.90;;;;;;4955046;28;20259;-68
2021/12/22 08:46:48;;;;;;;21.00;18.90;;;11.50;74.70;;;;;;4954732;28;20432;-68
2021/12/22 08:49:14;;;;;;;22.10;19.47;;;11.80;71.90;;;;;;4955006;28;20511;-68
2021/12/22 08:51:40;;;;;;;23.10;20.90;;;12.20;70.10;;;;;;4953311;28;20872;-69
2021/12/22 08:54:06;;;;;;;21.00;18.40;;;12.70;67.80;;;;;;4953365;29;20428;-68
2021/12/22 08:56:32;;;;;;;21.30;19.13;;;12.80;66.70;;;;;;4954673;29;20185;-68
2021/12/22 08:58:58;;;;;;;20.47;18.50;;;13.20;65.80;;;;;;4954884;28;20281;-68
2021/12/22 09:01:25;;;;;;;20.43;17.07;;;13.40;63.10;;;;;;4954871;28;20445;-68
2021/12/22 09:03:52;;;;;;;19.33;17.40;;;12.90;62.50;;;;;;4951341;28;20432;-68
2021/12/22 09:06:17;;;;;;;21.10;19.03;;;13.20;63.50;;;;;;4938188;29;20513;-68
2021/12/22 09:08:43;;;;;;;24.40;18.70;;;13.60;61.70;;;;;;4921739;29;20465;-68
2021/12/22 09:11:10;;;;;;;22.87;20.63;;;12.90;59.40;;;;;;4916105;29;20221;-69
2021/12/22 09:13:37;;;;;;;21.47;19.17;;;10.70;61.60;;;;;;4929352;29;20190;-68
2021/12/22 09:16:02;;;;;;;16.73;15.17;;;9.50;67.40;;;;;;4934737;29;20436;-68
2021/12/22 09:18:28;;;;;;;17.97;16.17;;;8.00;71.50;;;;;;4935387;29;20831;-68
2021/12/22 09:20:54;;;;;;;18.23;16.37;;;8.00;73.70;;;;;;4935313;29;20680;-68
2021/12/22 09:23:19;;;;;;;18.87;16.80;;;8.70;73.60;;;;;;4932106;29;20640;-68
2021/12/22 09:25:45;;;;;;;19.10;15.67;;;9.90;71.10;;;;;;4935025;29;20177;-69
2021/12/22 09:28:13;;;;;;;22.53;17.07;;;9.90;68.40;;;;;;4935231;29;20174;-68
2021/12/22 09:30:42;;;;;;;18.80;16.53;;;7.70;72.60;;;;;;4935178;29;20253;-68
2021/12/22 09:33:13;;;;;;;22.27;15.40;;;6.50;78.30;;;;;;4931948;29;20432;-69
2021/12/22 09:35:41;;;;;;;19.00;17.07;;;7.50;79.40;;;;;;4935021;29;20424;-68
2021/12/22 09:38:08;;;;;;;20.40;16.27;;;7.10;76.70;;;;;;4935125;29;20413;-69
2021/12/22 09:40:35;;;;;;;17.37;15.67;;;6.20;80.30;;;;;;4934954;29;20433;-69
2021/12/22 09:43:00;;;;;;;20.37;16.50;;;7.00;81.30;;;;;;4931889;29;20429;-68
2021/12/22 09:45:26;;;;;;;20.53;18.03;;;8.40;79.50;;;;;;4934734;29;20418;-68
2021/12/22 09:53:14;;;;;;;17.80;16.00;;;10.10;72.20;;;;;;4931713;29;20433;-68
2021/12/22 09:55:40;;;;;;;17.90;16.10;;;10.50;70.90;;;;;;4934643;29;20421;-68
2021/12/22 09:58:06;;;;;;;18.20;16.40;;;12.50;67.40;;;;;;4934770;29;20945;-68
2021/12/22 10:00:35;;;;;;;19.50;17.40;;;14.10;61.60;;;;;;4934756;29;20513;-68
2021/12/22 10:03:05;;;;;;;19.00;16.97;;;14.00;57.30;;;;;;4931694;29;20165;-69
2021/12/22 10:05:30;;;;;;;17.10;15.33;;;11.30;61.40;;;;;;4934308;29;20417;-68
2021/12/22 10:08:07;;;;;;;22.07;19.67;;;8.50;66.90;;;;;;4934830;29;20959;-68
2021/12/22 10:10:37;;;;;;;19.17;15.70;;;8.50;69.90;;;;;;4934491;29;20815;-67
2021/12/22 10:13:09;;;;;;;17.03;15.20;;;8.50;69.40;;;;;;4931176;29;20421;-68
2021/12/22 10:15:36;;;;;;;17.33;14.83;;;8.50;70.90;;;;;;4933743;29;20425;-68
2021/12/22 10:18:14;;;;;;;16.40;14.80;;;9.40;70.20;;;;;;4934929;29;20421;-67
2021/12/22 10:20:43;;;;;;;19.10;17.10;;;11.40;64.40;;;;;;4934628;29;20438;-67
2021/12/22 10:23:23;;;;;;;17.03;15.43;;;12.00;62.30;;;;;;4931263;29;20492;-67
2021/12/22 10:25:57;;;;;;;16.90;15.10;;;11.30;61.70;;;;;;4934194;29;20426;-67
2021/12/22 10:28:25;;;;;;;16.20;14.53;;;12.60;59.90;;;;;;4934425;29;20762;-67
2021/12/22 10:30:55;;;;;;;19.53;15.90;;;11.00;59.80;;;;;;4934499;29;20536;-67
2021/12/22 10:33:24;;;;;;;18.83;15.93;;;11.10;62.60;;;;;;4931177;29;20453;-67
2021/12/22 10:35:53;;;;;;;17.80;16.10;;;10.80;62.50;;;;;;4934133;29;20426;-67
2021/12/22 10:38:22;;;;;;;17.73;15.93;;;11.90;60.60;;;;;;4932944;29;20425;-67
2021/12/22 10:41:03;;;;;;;17.40;15.37;;;11.80;59.40;;;;;;4934207;29;20461;-67
2021/12/22 10:43:32;;;;;;;18.40;16.60;;;11.50;59.70;;;;;;4944030;29;20427;-67
2021/12/22 10:46:00;;;;;;;19.30;14.67;;;11.90;59.20;;;;;;4953036;29;20451;-67
2021/12/22 10:51:31;;;;;;;19.17;17.13;;;13.00;59.20;;;;;;4953509;28;20444;-67
2021/12/22 10:53:59;;;;;;;19.50;17.70;;;14.00;57.00;;;;;;4950189;28;20471;-67
2021/12/22 10:56:39;;;;;;;21.83;18.40;;;12.50;57.10;;;;;;4952890;29;20451;-67
2021/12/22 10:59:18;;;;;;;19.40;17.17;;;10.10;61.60;;;;;;4953203;29;20952;-67
2021/12/22 11:01:53;;;;;;;18.80;16.87;;;9.70;63.40;;;;;;4951046;28;20447;-67
2021/12/22 11:04:26;;;;;;;20.20;16.97;;;9.00;66.00;;;;;;4946608;29;20420;-67
2021/12/22 11:06:54;;;;;;;19.27;16.33;;;8.80;66.30;;;;;;4953030;28;20444;-67
2021/12/22 11:09:22;;;;;;;16.80;14.27;;;9.00;65.90;;;;;;4953200;28;20515;-67
2021/12/22 11:11:50;;;;;;;16.60;14.90;;;9.30;66.90;;;;;;4947970;28;20460;-67
2021/12/22 11:14:24;;;;;;;18.30;15.33;;;11.30;64.40;;;;;;4933465;29;20772;-67
2021/12/22 11:17:05;;;;;;;16.73;15.10;;;11.40;59.90;;;;;;4933747;29;20413;-67
2021/12/22 11:19:34;;;;;;;22.63;18.13;;;10.50;61.90;;;;;;4933859;29;20516;-67
2021/12/22 11:22:14;;;;;;;17.47;15.33;;;10.40;62.70;;;;;;4931113;29;20464;-67
2021/12/22 11:24:43;;;;;;;19.50;17.40;;;10.60;63.80;;;;;;4933400;29;20425;-67
2021/12/22 11:27:11;;;;;;;19.20;16.50;;;10.70;61.90;;;;;;4935498;29;20413;-67
2021/12/22 11:29:39;;;;;;;16.57;14.77;;;9.60;64.10;;;;;;4937233;29;20413;-67
2021/12/22 11:32:06;;;;;;;21.80;18.00;;;9.40;65.70;;;;;;4934417;29;20449;-67
2021/12/22 11:34:38;;;;;;;16.13;14.47;;;9.30;66.60;;;;;;4936752;29;20765;-67
2021/12/22 11:37:08;;;;;;;16.63;14.93;;;9.40;66.20;;;;;;4936825;29;20425;-67
2021/12/22 11:39:33;;;;;;;18.40;16.10;;;9.90;66.80;;;;;;4937035;29;20535;-67
2021/12/22 11:42:03;;;;;;;19.63;16.60;;;10.60;65.40;;;;;;4934033;29;20445;-67
2021/12/22 11:44:30;;;;;;;18.93;17.00;;;12.80;61.80;;;;;;4936584;29;20447;-67
2021/12/22 11:46:59;;;;;;;19.00;17.20;;;13.30;58.70;;;;;;4936770;29;20496;-67
2021/12/22 11:49:25;;;;;;;19.90;15.90;;;12.50;58.20;;;;;;4936888;29;20453;-67
2021/12/22 11:51:52;;;;;;;18.60;16.77;;;11.40;59.50;;;;;;4932762;29;20549;-66
2021/12/22 11:54:24;;;;;;;21.27;16.33;;;10.70;62.10;;;;;;4936311;29;20430;-67
2021/12/22 11:56:51;;;;;;;28.80;24.40;;;11.50;61.10;;;;;;4936592;29;20425;-67
2021/12/22 11:59:36;;;;;;;18.60;16.83;;;12.70;60.30;;;;;;4936668;29;20505;-67
2021/12/22 12:02:22;;;;;;;16.67;15.07;;;15.00;56.60;;;;;;4933784;29;20979;-67
2021/12/22 12:04:51;;;;;;;18.10;16.30;;;17.00;52.80;;;;;;4936156;29;20533;-67
2021/12/22 12:07:43;;;;;;;18.07;16.47;;;17.80;50.30;;;;;;4936418;29;20449;-67
2021/12/22 12:10:39;;;;;;;19.00;17.30;;;18.50;48.60;;;;;;4936489;29;20442;-67
2021/12/22 12:13:15;;;;;;;19.20;17.20;;;19.10;46.30;;;;;;4936683;28;20526;-67
2021/12/22 12:22:07;;;;;;;20.47;18.47;;;19.10;42.90;;;;;;4953431;28;20503;-66
2021/12/22 12:24:46;;;;;;;16.90;15.30;;;14.80;46.20;;;;;;4939994;28;20433;-67
2021/12/22 12:27:30;;;;;;;18.20;16.40;;;14.90;49.10;;;;;;4935938;29;20983;-67
2021/12/22 12:30:00;;;;;;;19.93;18.03;;;15.50;47.80;;;;;;4936247;29;20413;-67
2021/12/22 12:32:41;;;;;;;18.73;17.03;;;15.30;47.40;;;;;;4932067;29;20552;-67
2021/12/22 12:35:22;;;;;;;18.73;16.83;;;16.90;46.30;;;;;;4935519;29;20433;-67
2021/12/22 12:38:02;;;;;;;18.67;16.80;;;18.20;45.00;;;;;;4935693;29;20982;-67
2021/12/22 12:43:43;;;;;;;17.87;16.10;;;19.00;42.70;;;;;;4948394;29;20503;-67
2021/12/22 12:46:20;;;;;;;18.93;17.10;;;19.10;42.10;;;;;;4954827;28;20408;-67
2021/12/22 12:48:54;;;;;;;17.53;15.83;;;18.30;41.80;;;;;;4955132;28;20954;-69
2021/12/22 12:51:44;;;;;;;19.57;17.57;;;17.90;43.60;;;;;;4955140;28;20439;-69
2021/12/22 12:54:21;;;;;;;19.00;17.20;;;18.10;42.70;;;;;;4953130;28;20460;-69
2021/12/22 12:56:52;;;;;;;17.53;15.83;;;18.10;43.10;;;;;;4954805;28;20467;-68
2021/12/22 12:59:26;;;;;;;19.27;17.47;;;18.60;42.40;;;;;;4954834;29;20558;-66
2021/12/22 13:01:52;;;;;;;18.90;17.00;;;18.20;42.30;;;;;;4951107;28;20448;-66
2021/12/22 13:04:33;;;;;;;19.37;17.47;;;17.70;43.00;;;;;;4954318;28;20428;-66
2021/12/22 13:07:04;;;;;;;19.57;17.67;;;16.90;43.00;;;;;;4954474;29;20180;-66
2021/12/22 13:09:34;;;;;;;19.70;16.70;;;16.40;44.20;;;;;;4954766;28;20507;-68
2021/12/22 13:17:26;;;;;;;18.20;16.40;;;17.90;42.70;;;;;;4954552;29;20528;-68
2021/12/22 13:19:55;;;;;;;19.03;17.20;;;18.20;42.40;;;;;;4954526;29;20474;-68